Leuven, Belgium
Current Conditions -  °F | °C
As of 7:20 AM on Tuesday 21 Oct 2014 (Local Time) from EBBR Reporting Station
Broken Clouds Broken Clouds  
Wind Chill: 54°   Ceiling: 4800
Heat Index: 54°   Visibility: 6mi
Dew Point: 48°   Wind: 15mph
Humidity: 82%   Direction: 210°SSW
Pressure: 29.8"   Gusts: NA
Location:  50.88°N, 4.7°E
Report Text: EBBR 210520Z 21013KT 9999 FEW013 BKN048 12/09 Q1009 NOSIG
Loading
Personal Weather Stations






























Interactive Weather Map
Tropical Storm Tracking
New forecast layout! Learn more

10-Day Weather Forecast

Advertisements
Track Severe Weather on mobile